sensor_id;sensor_type;location;lat;lon;timestamp;pressure;altitude;pressure_sealevel;temperature;humidity
54592;BME280;40488;48.558;18.150;2023-04-08T00:00:01;99680.28;;;5.21;84.61
54592;BME280;40488;48.558;18.150;2023-04-08T00:02:36;99686.91;;;5.13;84.86
54592;BME280;40488;48.558;18.150;2023-04-08T00:05:06;99687.69;;;5.11;84.43
54592;BME280;40488;48.558;18.150;2023-04-08T00:07:35;99685.97;;;5.10;84.51
54592;BME280;40488;48.558;18.150;2023-04-08T00:10:05;99688.50;;;5.11;84.85
54592;BME280;40488;48.558;18.150;2023-04-08T00:12:34;99682.53;;;5.08;84.93
54592;BME280;40488;48.558;18.150;2023-04-08T00:15:05;99687.56;;;5.06;84.69
54592;BME280;40488;48.558;18.150;2023-04-08T00:17:34;99684.91;;;5.00;84.70
54592;BME280;40488;48.558;18.150;2023-04-08T00:20:04;99687.31;;;4.94;85.06
54592;BME280;40488;48.558;18.150;2023-04-08T00:22:32;99692.22;;;4.87;84.67
54592;BME280;40488;48.558;18.150;2023-04-08T00:25:01;99682.88;;;4.84;85.11
54592;BME280;40488;48.558;18.150;2023-04-08T00:27:33;99689.59;;;4.82;84.95
54592;BME280;40488;48.558;18.150;2023-04-08T00:30:04;99689.63;;;4.85;84.81
54592;BME280;40488;48.558;18.150;2023-04-08T00:32:33;99690.50;;;4.87;85.34
54592;BME280;40488;48.558;18.150;2023-04-08T00:35:03;99692.13;;;4.84;85.15
54592;BME280;40488;48.558;18.150;2023-04-08T00:37:32;99687.06;;;4.84;85.12
54592;BME280;40488;48.558;18.150;2023-04-08T00:40:01;99681.94;;;4.81;85.08
54592;BME280;40488;48.558;18.150;2023-04-08T00:42:30;99690.47;;;4.84;85.17
54592;BME280;40488;48.558;18.150;2023-04-08T00:44:59;99691.34;;;4.86;85.38
54592;BME280;40488;48.558;18.150;2023-04-08T00:47:30;99682.81;;;4.81;84.91
54592;BME280;40488;48.558;18.150;2023-04-08T00:49:59;99691.34;;;4.86;85.00
54592;BME280;40488;48.558;18.150;2023-04-08T00:52:28;99686.13;;;4.80;85.07
54592;BME280;40488;48.558;18.150;2023-04-08T00:54:57;99694.50;;;4.76;85.00
54592;BME280;40488;48.558;18.150;2023-04-08T00:57:26;99699.41;;;4.70;84.96
54592;BME280;40488;48.558;18.150;2023-04-08T00:59:54;99701.81;;;4.65;84.96
54592;BME280;40488;48.558;18.150;2023-04-08T01:02:27;99694.28;;;4.67;84.59
54592;BME280;40488;48.558;18.150;2023-04-08T01:05:02;99692.66;;;4.69;84.80
54592;BME280;40488;48.558;18.150;2023-04-08T01:07:35;99701.25;;;4.77;85.16
54592;BME280;40488;48.558;18.150;2023-04-08T01:10:12;99693.59;;;4.74;84.57
54592;BME280;40488;48.558;18.150;2023-04-08T01:12:48;99697.84;;;4.75;84.74
54592;BME280;40488;48.558;18.150;2023-04-08T01:15:18;99695.16;;;4.67;84.75
54592;BME280;40488;48.558;18.150;2023-04-08T01:17:49;99695.97;;;4.68;84.19
54592;BME280;40488;48.558;18.150;2023-04-08T01:20:23;99696.06;;;4.71;84.49
54592;BME280;40488;48.558;18.150;2023-04-08T01:23:02;99701.09;;;4.71;84.23
54592;BME280;40488;48.558;18.150;2023-04-08T01:25:37;99699.25;;;4.64;83.66
54592;BME280;40488;48.558;18.150;2023-04-08T01:28:11;99702.53;;;4.60;84.01
54592;BME280;40488;48.558;18.150;2023-04-08T01:30:41;99705.94;;;4.60;83.73
54592;BME280;40488;48.558;18.150;2023-04-08T01:33:14;99705.06;;;4.60;83.64
54592;BME280;40488;48.558;18.150;2023-04-08T01:35:45;99710.94;;;4.59;84.14
54592;BME280;40488;48.558;18.150;2023-04-08T01:38:16;99705.97;;;4.62;84.23
54592;BME280;40488;48.558;18.150;2023-04-08T01:40:48;99708.56;;;4.65;84.08
54592;BME280;40488;48.558;18.150;2023-04-08T01:43:19;99699.25;;;4.64;83.97
54592;BME280;40488;48.558;18.150;2023-04-08T01:45:50;99703.56;;;4.68;84.04
54592;BME280;40488;48.558;18.150;2023-04-08T01:48:25;99704.53;;;4.73;84.04
54592;BME280;40488;48.558;18.150;2023-04-08T01:50:56;99708.75;;;4.72;84.23
54592;BME280;40488;48.558;18.150;2023-04-08T01:53:25;99711.38;;;4.77;83.83
54592;BME280;40488;48.558;18.150;2023-04-08T01:55:57;99707.19;;;4.79;84.02
54592;BME280;40488;48.558;18.150;2023-04-08T01:58:37;99707.31;;;4.85;84.22
54592;BME280;40488;48.558;18.150;2023-04-08T02:01:10;99715.78;;;4.87;83.79
54592;BME280;40488;48.558;18.150;2023-04-08T02:03:42;99710.00;;;4.91;83.71
54592;BME280;40488;48.558;18.150;2023-04-08T02:06:13;99713.25;;;4.87;83.42
54592;BME280;40488;48.558;18.150;2023-04-08T02:08:44;99709.84;;;4.85;83.34
54592;BME280;40488;48.558;18.150;2023-04-08T02:11:13;99714.22;;;4.92;84.14
54592;BME280;40488;48.558;18.150;2023-04-08T02:13:43;99711.78;;;4.95;83.31
54592;BME280;40488;48.558;18.150;2023-04-08T02:16:18;99720.19;;;4.94;83.73
54592;BME280;40488;48.558;18.150;2023-04-08T02:18:55;99718.56;;;4.96;83.87
54592;BME280;40488;48.558;18.150;2023-04-08T02:21:29;99721.97;;;5.00;83.48
54592;BME280;40488;48.558;18.150;2023-04-08T02:24:04;99720.38;;;5.03;83.45
54592;BME280;40488;48.558;18.150;2023-04-08T02:26:36;99723.03;;;5.09;83.84
54592;BME280;40488;48.558;18.150;2023-04-08T02:29:11;99722.03;;;5.01;83.15
54592;BME280;40488;48.558;18.150;2023-04-08T02:31:41;99723.56;;;4.95;83.25
54592;BME280;40488;48.558;18.150;2023-04-08T02:34:14;99725.28;;;4.97;83.03
54592;BME280;40488;48.558;18.150;2023-04-08T02:36:43;99723.47;;;4.90;83.20
54592;BME280;40488;48.558;18.150;2023-04-08T02:39:13;99721.63;;;4.83;83.33
54592;BME280;40488;48.558;18.150;2023-04-08T02:41:42;99718.19;;;4.81;83.06
54592;BME280;40488;48.558;18.150;2023-04-08T02:44:12;99725.97;;;4.90;83.64
54592;BME280;40488;48.558;18.150;2023-04-08T02:46:41;99727.81;;;4.97;83.42
54592;BME280;40488;48.558;18.150;2023-04-08T02:49:10;99724.50;;;4.98;83.02
54592;BME280;40488;48.558;18.150;2023-04-08T02:51:39;99725.28;;;4.97;82.87
54592;BME280;40488;48.558;18.150;2023-04-08T02:54:08;99726.88;;;4.92;82.54
54592;BME280;40488;48.558;18.150;2023-04-08T02:56:36;99735.28;;;4.91;82.85
54592;BME280;40488;48.558;18.150;2023-04-08T02:59:05;99730.25;;;4.91;82.66
54592;BME280;40488;48.558;18.150;2023-04-08T03:01:35;99728.44;;;4.87;82.84
54592;BME280;40488;48.558;18.150;2023-04-08T03:04:04;99735.28;;;4.91;82.64
54592;BME280;40488;48.558;18.150;2023-04-08T03:06:33;99736.94;;;4.89;83.00
54592;BME280;40488;48.558;18.150;2023-04-08T03:09:02;99734.34;;;4.86;82.70
54592;BME280;40488;48.558;18.150;2023-04-08T03:11:32;99731.88;;;4.89;82.40
54592;BME280;40488;48.558;18.150;2023-04-08T03:14:01;99733.44;;;4.84;82.61
54592;BME280;40488;48.558;18.150;2023-04-08T03:16:29;99736.75;;;4.82;82.87
54592;BME280;40488;48.558;18.150;2023-04-08T03:19:00;99736.78;;;4.83;83.13
54592;BME280;40488;48.558;18.150;2023-04-08T03:21:29;99739.31;;;4.83;82.49
54592;BME280;40488;48.558;18.150;2023-04-08T03:23:58;99739.28;;;4.82;82.61
54592;BME280;40488;48.558;18.150;2023-04-08T03:26:27;99740.94;;;4.81;82.67
54592;BME280;40488;48.558;18.150;2023-04-08T03:28:56;99744.41;;;4.85;82.76
54592;BME280;40488;48.558;18.150;2023-04-08T03:31:25;99744.34;;;4.82;82.71
54592;BME280;40488;48.558;18.150;2023-04-08T03:33:54;99745.94;;;4.78;83.27
54592;BME280;40488;48.558;18.150;2023-04-08T03:36:24;99746.81;;;4.80;83.21
54592;BME280;40488;48.558;18.150;2023-04-08T03:38:53;99746.03;;;4.83;82.77
54592;BME280;40488;48.558;18.150;2023-04-08T03:41:22;99751.16;;;4.86;82.89
54592;BME280;40488;48.558;18.150;2023-04-08T03:43:50;99746.97;;;4.86;82.72
54592;BME280;40488;48.558;18.150;2023-04-08T03:46:19;99728.03;;;4.69;83.28
54592;BME280;40488;48.558;18.150;2023-04-08T03:48:48;99741.72;;;4.77;82.84
54592;BME280;40488;48.558;18.150;2023-04-08T03:51:18;99748.50;;;4.80;82.96
54592;BME280;40488;48.558;18.150;2023-04-08T03:53:48;99756.09;;;4.80;82.94
54592;BME280;40488;48.558;18.150;2023-04-08T03:56:18;99756.88;;;4.77;83.09
54592;BME280;40488;48.558;18.150;2023-04-08T03:58:46;99758.38;;;4.69;83.12
54592;BME280;40488;48.558;18.150;2023-04-08T04:01:15;99756.63;;;4.68;83.13
54592;BME280;40488;48.558;18.150;2023-04-08T04:03:44;99762.53;;;4.67;83.15
54592;BME280;40488;48.558;18.150;2023-04-08T04:06:13;99765.00;;;4.65;82.55
54592;BME280;40488;48.558;18.150;2023-04-08T04:08:42;99770.13;;;4.67;82.65
54592;BME280;40488;48.558;18.150;2023-04-08T04:11:12;99767.72;;;4.73;82.80
54592;BME280;40488;48.558;18.150;2023-04-08T04:13:41;99773.69;;;4.75;82.70
54592;BME280;40488;48.558;18.150;2023-04-08T04:16:10;99783.63;;;4.69;82.63
54592;BME280;40488;48.558;18.150;2023-04-08T04:18:39;99775.16;;;4.67;83.11
54592;BME280;40488;48.558;18.150;2023-04-08T04:21:08;99781.09;;;4.69;82.79
54592;BME280;40488;48.558;18.150;2023-04-08T04:23:37;99785.56;;;4.79;82.59
54592;BME280;40488;48.558;18.150;2023-04-08T04:26:07;99787.41;;;4.85;82.82
54592;BME280;40488;48.558;18.150;2023-04-08T04:28:39;99782.28;;;4.83;82.88
54592;BME280;40488;48.558;18.150;2023-04-08T04:31:07;99779.75;;;4.83;82.94
54592;BME280;40488;48.558;18.150;2023-04-08T04:33:45;99783.19;;;4.85;82.63
54592;BME280;40488;48.558;18.150;2023-04-08T04:36:14;99792.56;;;4.89;82.98
54592;BME280;40488;48.558;18.150;2023-04-08T04:38:43;99787.56;;;4.92;82.41
54592;BME280;40488;48.558;18.150;2023-04-08T04:41:15;99786.84;;;4.98;82.62
54592;BME280;40488;48.558;18.150;2023-04-08T04:43:45;99792.00;;;5.02;82.99
54592;BME280;40488;48.558;18.150;2023-04-08T04:46:14;99794.59;;;5.04;83.02
54592;BME280;40488;48.558;18.150;2023-04-08T04:48:43;99792.00;;;5.02;82.85
54592;BME280;40488;48.558;18.150;2023-04-08T04:51:11;99796.22;;;5.02;83.26
54592;BME280;40488;48.558;18.150;2023-04-08T04:53:40;99798.75;;;5.02;83.68
54592;BME280;40488;48.558;18.150;2023-04-08T04:56:10;99796.19;;;5.00;83.66
54592;BME280;40488;48.558;18.150;2023-04-08T04:58:38;99792.84;;;5.01;83.95
54592;BME280;40488;48.558;18.150;2023-04-08T05:01:09;99804.56;;;4.99;84.50
54592;BME280;40488;48.558;18.150;2023-04-08T05:03:38;99806.16;;;4.94;84.23
54592;BME280;40488;48.558;18.150;2023-04-08T05:06:07;99808.69;;;4.94;84.66
54592;BME280;40488;48.558;18.150;2023-04-08T05:08:36;99818.91;;;4.99;84.94
54592;BME280;40488;48.558;18.150;2023-04-08T05:11:08;99816.31;;;4.96;84.76
54592;BME280;40488;48.558;18.150;2023-04-08T05:13:37;99819.66;;;4.95;84.67
54592;BME280;40488;48.558;18.150;2023-04-08T05:16:06;99818.94;;;5.00;85.19
54592;BME280;40488;48.558;18.150;2023-04-08T05:18:36;99823.13;;;4.98;84.57
54592;BME280;40488;48.558;18.150;2023-04-08T05:21:05;99819.75;;;4.99;84.91
54592;BME280;40488;48.558;18.150;2023-04-08T05:23:34;99824.78;;;4.98;84.46
54592;BME280;40488;48.558;18.150;2023-04-08T05:26:06;99826.44;;;4.97;84.39
54592;BME280;40488;48.558;18.150;2023-04-08T05:28:35;99838.97;;;4.91;84.16
54592;BME280;40488;48.558;18.150;2023-04-08T05:31:03;99839.69;;;4.87;83.65
54592;BME280;40488;48.558;18.150;2023-04-08T05:33:33;99837.13;;;4.86;83.54
54592;BME280;40488;48.558;18.150;2023-04-08T05:36:03;99848.03;;;4.83;83.48
54592;BME280;40488;48.558;18.150;2023-04-08T05:38:32;99846.25;;;4.79;82.96
54592;BME280;40488;48.558;18.150;2023-04-08T05:41:01;99846.25;;;4.79;83.15
54592;BME280;40488;48.558;18.150;2023-04-08T05:43:32;99847.16;;;4.83;83.17
54592;BME280;40488;48.558;18.150;2023-04-08T05:46:05;99844.69;;;4.84;82.82
54592;BME280;40488;48.558;18.150;2023-04-08T05:48:34;99834.38;;;4.75;82.94
54592;BME280;40488;48.558;18.150;2023-04-08T05:51:05;99848.09;;;4.86;82.58
54592;BME280;40488;48.558;18.150;2023-04-08T05:53:34;99851.53;;;4.88;82.57
54592;BME280;40488;48.558;18.150;2023-04-08T05:56:03;99855.81;;;4.91;82.36
54592;BME280;40488;48.558;18.150;2023-04-08T05:58:32;99855.81;;;4.92;82.16
54592;BME280;40488;48.558;18.150;2023-04-08T06:01:01;99858.34;;;4.92;82.30
54592;BME280;40488;48.558;18.150;2023-04-08T06:03:30;99860.09;;;4.93;82.06
54592;BME280;40488;48.558;18.150;2023-04-08T06:05:58;99854.13;;;4.91;82.17
54592;BME280;40488;48.558;18.150;2023-04-08T06:08:29;99859.22;;;4.93;81.85
54592;BME280;40488;48.558;18.150;2023-04-08T06:10:57;99853.38;;;4.95;82.13
54592;BME280;40488;48.558;18.150;2023-04-08T06:13:27;99853.38;;;4.95;81.45
54592;BME280;40488;48.558;18.150;2023-04-08T06:15:55;99866.25;;;5.04;81.53
54592;BME280;40488;48.558;18.150;2023-04-08T06:18:24;99863.78;;;5.07;81.41
54592;BME280;40488;48.558;18.150;2023-04-08T06:20:53;99859.53;;;5.06;81.31
54592;BME280;40488;48.558;18.150;2023-04-08T06:23:22;99860.38;;;5.05;81.54
54592;BME280;40488;48.558;18.150;2023-04-08T06:25:54;99868.94;;;5.10;81.29
54592;BME280;40488;48.558;18.150;2023-04-08T06:28:23;99871.50;;;5.12;80.89
54592;BME280;40488;48.558;18.150;2023-04-08T06:30:51;99870.72;;;5.14;80.86
54592;BME280;40488;48.558;18.150;2023-04-08T06:33:20;99874.91;;;5.14;80.95
54592;BME280;40488;48.558;18.150;2023-04-08T06:35:49;99879.94;;;5.12;80.57
54592;BME280;40488;48.558;18.150;2023-04-08T06:38:18;99875.78;;;5.14;80.59
54592;BME280;40488;48.558;18.150;2023-04-08T06:40:46;99885.88;;;5.14;80.48
54592;BME280;40488;48.558;18.150;2023-04-08T06:43:17;99887.63;;;5.15;80.59
54592;BME280;40488;48.558;18.150;2023-04-08T06:45:45;99888.41;;;5.14;80.66
54592;BME280;40488;48.558;18.150;2023-04-08T06:48:14;99888.41;;;5.14;80.61
54592;BME280;40488;48.558;18.150;2023-04-08T06:50:43;99891.03;;;5.17;80.49
54592;BME280;40488;48.558;18.150;2023-04-08T06:53:12;99901.22;;;5.20;80.17
54592;BME280;40488;48.558;18.150;2023-04-08T06:55:41;99903.91;;;5.28;80.38
54592;BME280;40488;48.558;18.150;2023-04-08T06:58:09;99898.16;;;5.33;80.36
54592;BME280;40488;48.558;18.150;2023-04-08T07:00:41;99904.94;;;5.34;80.02
54592;BME280;40488;48.558;18.150;2023-04-08T07:03:10;99898.16;;;5.33;79.89
54592;BME280;40488;48.558;18.150;2023-04-08T07:05:39;99908.19;;;5.30;79.78
54592;BME280;40488;48.558;18.150;2023-04-08T07:08:08;99904.72;;;5.25;79.80
54592;BME280;40488;48.558;18.150;2023-04-08T07:10:37;99903.00;;;5.24;79.48
54592;BME280;40488;48.558;18.150;2023-04-08T07:13:05;99903.00;;;5.24;79.25
54592;BME280;40488;48.558;18.150;2023-04-08T07:15:34;99914.84;;;5.25;78.85
54592;BME280;40488;48.558;18.150;2023-04-08T07:18:04;99914.97;;;5.31;79.33
54592;BME280;40488;48.558;18.150;2023-04-08T07:20:33;99918.41;;;5.33;78.87
54592;BME280;40488;48.558;18.150;2023-04-08T07:23:04;99926.06;;;5.36;78.77
54592;BME280;40488;48.558;18.150;2023-04-08T07:25:33;99926.09;;;5.38;78.88
54592;BME280;40488;48.558;18.150;2023-04-08T07:28:02;99933.78;;;5.42;78.76
54592;BME280;40488;48.558;18.150;2023-04-08T07:30:31;99931.44;;;5.50;78.67
54592;BME280;40488;48.558;18.150;2023-04-08T07:33:00;99929.88;;;5.55;78.96
54592;BME280;40488;48.558;18.150;2023-04-08T07:35:30;99935.03;;;5.58;78.43
54592;BME280;40488;48.558;18.150;2023-04-08T07:37:59;99942.63;;;5.58;78.34
54592;BME280;40488;48.558;18.150;2023-04-08T07:40:28;99941.66;;;5.55;78.31
54592;BME280;40488;48.558;18.150;2023-04-08T07:42:57;99946.78;;;5.56;78.20
54592;BME280;40488;48.558;18.150;2023-04-08T07:45:26;99946.06;;;5.62;78.01
54592;BME280;40488;48.558;18.150;2023-04-08T07:47:54;99946.28;;;5.71;78.16
54592;BME280;40488;48.558;18.150;2023-04-08T07:50:24;99951.41;;;5.74;78.22
54592;BME280;40488;48.558;18.150;2023-04-08T07:52:54;99954.91;;;5.79;78.37
54592;BME280;40488;48.558;18.150;2023-04-08T07:55:23;99959.09;;;5.78;78.17
54592;BME280;40488;48.558;18.150;2023-04-08T07:57:52;99954.13;;;5.81;78.53
54592;BME280;40488;48.558;18.150;2023-04-08T08:00:21;99954.34;;;5.90;78.14
54592;BME280;40488;48.558;18.150;2023-04-08T08:02:50;99960.34;;;5.94;78.03
54592;BME280;40488;48.558;18.150;2023-04-08T08:05:19;99960.34;;;5.94;78.19
54592;BME280;40488;48.558;18.150;2023-04-08T08:07:48;99960.34;;;5.94;78.24
54592;BME280;40488;48.558;18.150;2023-04-08T08:10:19;99959.59;;;5.98;78.22
54592;BME280;40488;48.558;18.150;2023-04-08T08:12:47;99948.56;;;5.96;78.25
54592;BME280;40488;48.558;18.150;2023-04-08T08:15:16;99960.69;;;6.09;78.31
54592;BME280;40488;48.558;18.150;2023-04-08T08:17:45;99966.03;;;6.21;78.48
54592;BME280;40488;48.558;18.150;2023-04-08T08:20:14;99963.56;;;6.26;78.14
54592;BME280;40488;48.558;18.150;2023-04-08T08:22:43;99965.41;;;6.33;78.21
54592;BME280;40488;48.558;18.150;2023-04-08T08:25:25;99967.25;;;6.41;77.86
54592;BME280;40488;48.558;18.150;2023-04-08T08:27:54;99969.72;;;6.38;78.28
54592;BME280;40488;48.558;18.150;2023-04-08T08:30:23;99962.13;;;6.38;77.87
54592;BME280;40488;48.558;18.150;2023-04-08T08:32:52;99968.94;;;6.41;78.24
54592;BME280;40488;48.558;18.150;2023-04-08T08:35:22;99971.44;;;6.39;78.06
54592;BME280;40488;48.558;18.150;2023-04-08T08:37:51;99973.34;;;6.49;77.79
54592;BME280;40488;48.558;18.150;2023-04-08T08:40:20;99973.53;;;6.58;77.42
54592;BME280;40488;48.558;18.150;2023-04-08T08:42:51;99969.59;;;6.72;77.40
54592;BME280;40488;48.558;18.150;2023-04-08T08:45:20;99968.78;;;6.73;77.24
54592;BME280;40488;48.558;18.150;2023-04-08T08:47:49;99971.38;;;6.78;76.75
54592;BME280;40488;48.558;18.150;2023-04-08T08:50:19;99976.53;;;6.81;76.70
54592;BME280;40488;48.558;18.150;2023-04-08T08:52:48;99977.44;;;6.85;76.01
54592;BME280;40488;48.558;18.150;2023-04-08T08:55:17;99982.63;;;6.91;76.08
54592;BME280;40488;48.558;18.150;2023-04-08T08:58:08;99987.78;;;6.95;75.96
54592;BME280;40488;48.558;18.150;2023-04-08T09:00:37;99987.81;;;6.97;75.66
54592;BME280;40488;48.558;18.150;2023-04-08T09:03:17;99989.63;;;7.04;75.70
54592;BME280;40488;48.558;18.150;2023-04-08T09:05:50;99993.81;;;7.02;75.31
54592;BME280;40488;48.558;18.150;2023-04-08T09:08:24;99987.72;;;6.92;74.52
54592;BME280;40488;48.558;18.150;2023-04-08T09:10:53;99990.34;;;6.98;74.08
54592;BME280;40488;48.558;18.150;2023-04-08T09:13:24;99995.63;;;7.09;74.21
54592;BME280;40488;48.558;18.150;2023-04-08T09:16:03;99999.69;;;6.98;72.99
54592;BME280;40488;48.558;18.150;2023-04-08T09:18:32;100003.09;;;7.00;73.37
54592;BME280;40488;48.558;18.150;2023-04-08T09:21:02;100006.63;;;7.08;73.34
54592;BME280;40488;48.558;18.150;2023-04-08T09:23:42;100006.50;;;7.02;72.40
54592;BME280;40488;48.558;18.150;2023-04-08T09:26:13;100013.34;;;7.06;72.46
54592;BME280;40488;48.558;18.150;2023-04-08T09:28:57;100007.53;;;7.11;72.26
54592;BME280;40488;48.558;18.150;2023-04-08T09:31:36;100011.91;;;7.20;72.43
54592;BME280;40488;48.558;18.150;2023-04-08T09:34:10;100019.84;;;7.36;72.68
54592;BME280;40488;48.558;18.150;2023-04-08T09:36:41;100015.53;;;7.32;72.31
54592;BME280;40488;48.558;18.150;2023-04-08T09:39:10;100023.84;;;7.24;71.68
54592;BME280;40488;48.558;18.150;2023-04-08T09:41:39;100014.78;;;7.36;72.42
54592;BME280;40488;48.558;18.150;2023-04-08T09:44:10;100020.78;;;7.43;72.18
54592;BME280;40488;48.558;18.150;2023-04-08T09:46:46;100025.72;;;7.34;71.26
54592;BME280;40488;48.558;18.150;2023-04-08T09:49:25;100028.16;;;7.29;71.17
54592;BME280;40488;48.558;18.150;2023-04-08T09:52:01;100022.13;;;7.23;71.05
54592;BME280;40488;48.558;18.150;2023-04-08T09:54:40;100022.88;;;7.17;70.00
54592;BME280;40488;48.558;18.150;2023-04-08T09:57:15;100027.25;;;7.26;69.42
54592;BME280;40488;48.558;18.150;2023-04-08T09:59:51;100018.84;;;7.30;69.25
54592;BME280;40488;48.558;18.150;2023-04-08T10:02:29;100024.00;;;7.33;68.65
54592;BME280;40488;48.558;18.150;2023-04-08T10:05:02;100019.94;;;7.44;68.76
54592;BME280;40488;48.558;18.150;2023-04-08T10:07:34;100014.25;;;7.57;68.82
54592;BME280;40488;48.558;18.150;2023-04-08T10:10:04;100022.69;;;7.56;67.82
54592;BME280;40488;48.558;18.150;2023-04-08T10:12:34;100029.38;;;7.50;66.86
54592;BME280;40488;48.558;18.150;2023-04-08T10:15:23;100023.69;;;7.66;67.10
54592;BME280;40488;48.558;18.150;2023-04-08T10:17:52;100020.53;;;7.79;66.60
54592;BME280;40488;48.558;18.150;2023-04-08T10:20:39;100024.13;;;7.91;66.57
54592;BME280;40488;48.558;18.150;2023-04-08T10:23:09;100021.63;;;7.94;65.63
54592;BME280;40488;48.558;18.150;2023-04-08T10:25:40;100020.81;;;7.97;64.96
54592;BME280;40488;48.558;18.150;2023-04-08T10:28:23;100021.81;;;8.06;65.03
54592;BME280;40488;48.558;18.150;2023-04-08T10:30:54;100018.50;;;8.13;64.91
54592;BME280;40488;48.558;18.150;2023-04-08T10:33:32;100013.53;;;8.20;64.76
54592;BME280;40488;48.558;18.150;2023-04-08T10:36:10;100013.75;;;8.32;64.55
54592;BME280;40488;48.558;18.150;2023-04-08T10:38:41;100011.38;;;8.45;64.30
54592;BME280;40488;48.558;18.150;2023-04-08T10:41:10;100013.16;;;8.51;63.84
54592;BME280;40488;48.558;18.150;2023-04-08T10:43:40;100017.47;;;8.58;63.40
54592;BME280;40488;48.558;18.150;2023-04-08T10:46:11;100014.13;;;8.62;62.63
54592;BME280;40488;48.558;18.150;2023-04-08T10:48:39;100015.78;;;8.60;63.43
54592;BME280;40488;48.558;18.150;2023-04-08T10:51:08;100012.44;;;8.61;63.47
54592;BME280;40488;48.558;18.150;2023-04-08T10:53:38;100018.22;;;8.49;63.44
54592;BME280;40488;48.558;18.150;2023-04-08T10:56:08;100011.47;;;8.51;63.27
54592;BME280;40488;48.558;18.150;2023-04-08T10:58:47;100014.03;;;8.54;62.57
54592;BME280;40488;48.558;18.150;2023-04-08T11:01:18;99995.38;;;8.54;63.25
54592;BME280;40488;48.558;18.150;2023-04-08T11:03:48;100008.97;;;8.56;62.79
54592;BME280;40488;48.558;18.150;2023-04-08T11:06:18;100009.53;;;8.35;63.10
54592;BME280;40488;48.558;18.150;2023-04-08T11:08:47;100008.72;;;8.38;63.15
54592;BME280;40488;48.558;18.150;2023-04-08T11:11:15;100013.91;;;8.44;63.07
54592;BME280;40488;48.558;18.150;2023-04-08T11:13:47;100008.81;;;8.44;62.89
54592;BME280;40488;48.558;18.150;2023-04-08T11:16:21;100013.09;;;8.46;64.10
54592;BME280;40488;48.558;18.150;2023-04-08T11:18:52;100012.88;;;8.33;63.86
54592;BME280;40488;48.558;18.150;2023-04-08T11:21:23;100007.78;;;8.30;64.10
54592;BME280;40488;48.558;18.150;2023-04-08T11:23:56;100003.44;;;8.26;64.35
54592;BME280;40488;48.558;18.150;2023-04-08T11:26:26;100013.59;;;8.26;63.77
54592;BME280;40488;48.558;18.150;2023-04-08T11:28:55;100010.13;;;8.21;63.99
54592;BME280;40488;48.558;18.150;2023-04-08T11:31:26;100016.00;;;8.15;64.79
54592;BME280;40488;48.558;18.150;2023-04-08T11:34:01;100015.22;;;8.21;64.29
54592;BME280;40488;48.558;18.150;2023-04-08T11:36:30;100010.13;;;8.18;64.18
54592;BME280;40488;48.558;18.150;2023-04-08T11:39:06;100013.44;;;8.13;64.51
54592;BME280;40488;48.558;18.150;2023-04-08T11:41:36;100022.66;;;8.05;65.39
54592;BME280;40488;48.558;18.150;2023-04-08T11:44:07;100015.72;;;7.94;65.11
54592;BME280;40488;48.558;18.150;2023-04-08T11:46:37;100020.69;;;7.88;66.60
54592;BME280;40488;48.558;18.150;2023-04-08T11:49:08;100023.16;;;7.83;65.71
54592;BME280;40488;48.558;18.150;2023-04-08T11:51:55;100029.03;;;7.81;67.01
54592;BME280;40488;48.558;18.150;2023-04-08T11:54:27;100027.34;;;7.81;66.90
54592;BME280;40488;48.558;18.150;2023-04-08T11:56:56;100025.72;;;7.85;67.12
54592;BME280;40488;48.558;18.150;2023-04-08T11:59:25;100025.72;;;7.85;66.54
54592;BME280;40488;48.558;18.150;2023-04-08T12:01:57;100026.56;;;7.84;66.96
54592;BME280;40488;48.558;18.150;2023-04-08T12:04:26;100020.59;;;7.83;67.64
54592;BME280;40488;48.558;18.150;2023-04-08T12:06:56;100025.75;;;7.86;67.50
54592;BME280;40488;48.558;18.150;2023-04-08T12:09:25;100024.91;;;7.87;66.76
54592;BME280;40488;48.558;18.150;2023-04-08T12:11:54;100028.31;;;7.89;66.93
54592;BME280;40488;48.558;18.150;2023-04-08T12:14:23;100026.69;;;7.94;66.81
54592;BME280;40488;48.558;18.150;2023-04-08T12:16:54;100023.22;;;7.86;66.96
54592;BME280;40488;48.558;18.150;2023-04-08T12:19:25;100023.09;;;7.80;66.60
54592;BME280;40488;48.558;18.150;2023-04-08T12:21:53;100029.91;;;7.81;67.56
54592;BME280;40488;48.558;18.150;2023-04-08T12:24:22;100024.81;;;7.81;67.13
54592;BME280;40488;48.558;18.150;2023-04-08T12:26:51;100036.66;;;7.81;67.41
54592;BME280;40488;48.558;18.150;2023-04-08T12:29:20;100028.97;;;7.78;67.62
54592;BME280;40488;48.558;18.150;2023-04-08T12:31:49;100028.19;;;7.80;67.17
54592;BME280;40488;48.558;18.150;2023-04-08T12:34:18;100029.84;;;7.78;67.67
54592;BME280;40488;48.558;18.150;2023-04-08T12:36:48;100029.09;;;7.85;68.59
54592;BME280;40488;48.558;18.150;2023-04-08T12:39:17;100026.50;;;7.79;68.32
54592;BME280;40488;48.558;18.150;2023-04-08T12:41:46;100029.09;;;7.85;69.48
54592;BME280;40488;48.558;18.150;2023-04-08T12:44:14;100030.03;;;7.90;70.02
54592;BME280;40488;48.558;18.150;2023-04-08T12:46:44;100029.28;;;7.96;70.21
54592;BME280;40488;48.558;18.150;2023-04-08T12:49:13;100029.25;;;7.94;69.81
54592;BME280;40488;48.558;18.150;2023-04-08T12:51:42;100032.69;;;7.98;69.51
54592;BME280;40488;48.558;18.150;2023-04-08T12:54:12;100031.84;;;7.97;69.00
54592;BME280;40488;48.558;18.150;2023-04-08T12:56:41;100033.56;;;7.98;69.42
54592;BME280;40488;48.558;18.150;2023-04-08T12:59:10;100036.88;;;7.94;69.73
54592;BME280;40488;48.558;18.150;2023-04-08T13:01:39;100032.63;;;7.93;69.86
54592;BME280;40488;48.558;18.150;2023-04-08T13:04:08;100035.84;;;7.83;70.38
54592;BME280;40488;48.558;18.150;2023-04-08T13:06:37;100033.25;;;7.77;70.34
54592;BME280;40488;48.558;18.150;2023-04-08T13:09:06;100033.25;;;7.80;70.45
54592;BME280;40488;48.558;18.150;2023-04-08T13:11:36;100040.94;;;7.82;70.85
54592;BME280;40488;48.558;18.150;2023-04-08T13:14:05;100034.97;;;7.81;70.72